Statesman — VNTK — position and weather

sailwx.info

Track history (hours):
 
Tides and Currents Weather Stations Pressure Air Temp Water Temp Dewpoint Dewpoint Depression Visibility Wind Speed Wind Dir Waves Ship Positions

Statesman

Last reported at 2018-Jun-19 07:00 UTC. Time now 2018-Jun-19 06:59 UTC.
Position S 41°25' E 147°07'.

; draft 2.3 m.

Type: Passenger vessel. MMSI: 503344000.

Date/timePositionNaut miles runAvg speedWind from/ knotsBaromVisibWave heightAir tempDewpointWater temp
2018-Jun-19 07:00S 41°25' E 147°07'0 0.0
2018-Jun-19 06:30S 41°25' E 147°07'0 0.0
2018-Jun-19 06:00S 41°25' E 147°07'0 0.0
2018-Jun-19 05:30S 41°25' E 147°07'0 0.0
2018-Jun-19 05:00S 41°25' E 147°07'0 0.0
2018-Jun-19 04:30S 41°25' E 147°07'0 0.0
2018-Jun-19 04:00S 41°25' E 147°07'0 0.0
2018-Jun-19 03:30S 41°25' E 147°07'0 0.0
2018-Jun-19 03:00S 41°25' E 147°07'0 0.0
2018-Jun-19 02:30S 41°25' E 147°07'0 0.0
2018-Jun-19 02:00S 41°25' E 147°07'0 0.0
2018-Jun-19 01:30S 41°25' E 147°07'0 0.0
2018-Jun-19 01:00S 41°25' E 147°07'0 0.0
2018-Jun-19 00:30S 41°25' E 147°07'0 0.0
2018-Jun-19 00:00S 41°25' E 147°07'0 0.0
2018-Jun-18 23:30S 41°25' E 147°07'0 0.0
2018-Jun-18 23:00S 41°25' E 147°07'0 0.0
2018-Jun-18 22:30S 41°25' E 147°07'0 0.0
2018-Jun-18 22:00S 41°25' E 147°07'0 0.0
2018-Jun-18 21:30S 41°25' E 147°07'0 0.0
2018-Jun-18 21:00S 41°25' E 147°07'0 0.0
2018-Jun-18 20:30S 41°25' E 147°07'0 0.0
2018-Jun-18 20:00S 41°25' E 147°07'0 0.0
2018-Jun-18 19:30S 41°25' E 147°07'0 0.0
2018-Jun-18 19:00S 41°25' E 147°07'0 0.0
2018-Jun-18 18:30S 41°25' E 147°07'0 0.0
2018-Jun-18 18:00S 41°25' E 147°07'0 0.0
2018-Jun-18 17:30S 41°25' E 147°07'0 0.0
2018-Jun-18 17:00S 41°25' E 147°07'0 0.0
2018-Jun-18 16:29S 41°25' E 147°07'0 0.0
2018-Jun-18 16:00S 41°25' E 147°07'0 0.0
2018-Jun-18 15:30S 41°25' E 147°07'0 0.0
2018-Jun-18 15:00S 41°25' E 147°07'0 0.0
2018-Jun-18 14:30S 41°25' E 147°07'0 0.0
2018-Jun-18 14:00S 41°25' E 147°07'0 0.0
2018-Jun-18 13:30S 41°25' E 147°07'0 0.0
2018-Jun-18 13:00S 41°25' E 147°07'0 0.0
2018-Jun-18 12:30S 41°25' E 147°07'0 0.0
2018-Jun-18 12:00S 41°25' E 147°07'0 0.0
2018-Jun-18 11:30S 41°25' E 147°07'0 0.0
2018-Jun-18 11:00S 41°25' E 147°07'0 0.0
2018-Jun-18 10:30S 41°25' E 147°07'0 0.0
2018-Jun-18 10:00S 41°25' E 147°07'0 0.0
2018-Jun-18 09:30S 41°25' E 147°07'0 0.0
2018-Jun-18 09:00S 41°25' E 147°07'0 0.0
2018-Jun-18 08:30S 41°25' E 147°07'0 0.0
2018-Jun-18 07:59S 41°25' E 147°07'0 0.0
2018-Jun-18 07:30S 41°25' E 147°07'0 0.0
2018-Jun-18 07:00S 41°25' E 147°07'0 0.0
2018-Jun-18 06:30S 41°25' E 147°07'1 1.1
2018-Jun-18 06:00S 41°25' E 147°07'4 8.4
2018-Jun-18 05:30S 41°21' E 147°04'3 5.6
2018-Jun-18 05:00S 41°20' E 147°01'4 7.6
2018-Jun-18 04:30S 41°16' E 146°59'4 8.7
2018-Jun-18 04:00S 41°13' E 146°55'4 8.4
2018-Jun-18 03:30S 41°09' E 146°54'2 3.6
2018-Jun-18 03:00S 41°08' E 146°52'0 0.0
2018-Jun-18 02:30S 41°08' E 146°52'0 0.1
2018-Jun-18 02:00S 41°08' E 146°52'0 0.0
2018-Jun-18 01:30S 41°08' E 146°52'0 0.0
2018-Jun-18 01:00S 41°08' E 146°52'0 0.1
2018-Jun-18 00:30S 41°08' E 146°52'0 0.0
2018-Jun-18 00:00S 41°08' E 146°52'0 0.0
2018-Jun-17 23:30S 41°08' E 146°52'1 1.7
2018-Jun-17 23:00S 41°08' E 146°51'0 0.1
2018-Jun-17 22:30S 41°08' E 146°51'1 1.8
2018-Jun-17 22:00S 41°08' E 146°50'1 1.3
2018-Jun-17 21:30S 41°09' E 146°51'0 0.6
2018-Jun-17 20:59S 41°09' E 146°50'0 0.1
2018-Jun-17 20:29S 41°08' E 146°50'0 0.0
2018-Jun-17 20:00S 41°09' E 146°50'0 0.1
2018-Jun-17 19:30S 41°09' E 146°50'0 0.0
2018-Jun-17 19:00S 41°08' E 146°50'0 0.0
2018-Jun-17 18:30S 41°08' E 146°50'0 0.1
2018-Jun-17 18:00S 41°08' E 146°50'0 0.1
2018-Jun-17 17:30S 41°08' E 146°50'0 0.0
2018-Jun-17 17:00S 41°09' E 146°50'0 0.0
2018-Jun-17 16:30S 41°09' E 146°50'0 0.0
2018-Jun-17 16:00S 41°09' E 146°50'0 0.0
2018-Jun-17 15:30S 41°09' E 146°50'0 0.0
2018-Jun-17 15:00S 41°09' E 146°50'0 0.0
2018-Jun-17 14:30S 41°09' E 146°50'0 0.0
2018-Jun-17 14:00S 41°09' E 146°50'0 0.0
2018-Jun-17 13:30S 41°09' E 146°50'0 0.0
2018-Jun-17 13:00S 41°08' E 146°50'1 1.1
2018-Jun-17 12:30S 41°08' E 146°50'4 8.7
2018-Jun-17 12:00S 41°04' E 146°48'3 6.6
2018-Jun-17 11:30S 41°01' E 146°46'3 5.0
2018-Jun-17 11:00S 40°59' E 146°48'2 4.8
2018-Jun-17 10:30S 40°57' E 146°49'3 6.3
2018-Jun-17 10:00S 40°54' E 146°51'3 6.7
2018-Jun-17 09:30S 40°51' E 146°53'3 6.8
2018-Jun-17 09:00S 40°48' E 146°55'4 7.2
2018-Jun-17 08:30S 40°45' E 146°57'3 6.7
2018-Jun-17 08:00S 40°42' E 146°59'4 7.2
2018-Jun-17 07:30S 40°39' E 147°02'3 6.4
2018-Jun-17 07:00S 40°36' E 147°03'3 6.0
2018-Jun-17 06:30S 40°33' E 147°05'3 5.6
2018-Jun-17 06:00S 40°31' E 147°07'3 5.9
2018-Jun-17 05:30S 40°28' E 147°09'3 5.8
2018-Jun-17 05:00S 40°25' E 147°10'3 6.6
2018-Jun-17 04:30S 40°23' E 147°12'4 7.3
2018-Jun-17 04:00S 40°19' E 147°15'4 7.8
2018-Jun-17 03:30S 40°16' E 147°17'4 7.9
2018-Jun-17 03:00S 40°12' E 147°18'  
2018-Jun-13 12:58S 40°11' E 146°42'3 6.6
2018-Jun-13 12:30S 40°14' E 146°42'3 6.6
2018-Jun-13 11:59S 40°17' E 146°43'3 6.4
2018-Jun-13 11:30S 40°20' E 146°43'3 5.9
2018-Jun-13 11:00S 40°23' E 146°44'3 6.3
2018-Jun-13 10:30S 40°26' E 146°44'3 5.8
2018-Jun-13 10:00S 40°29' E 146°45'3 5.6
2018-Jun-13 09:30S 40°32' E 146°45'2 4.7
2018-Jun-13 09:00S 40°34' E 146°45'3 5.6
2018-Jun-13 08:30S 40°37' E 146°45'3 6.0
2018-Jun-13 08:00S 40°40' E 146°46'3 6.5
2018-Jun-13 07:30S 40°43' E 146°46'3 6.8
2018-Jun-13 07:00S 40°47' E 146°46'3 7.0
2018-Jun-13 06:30S 40°50' E 146°47'4 7.8
2018-Jun-13 06:00S 40°54' E 146°46'4 8.0
2018-Jun-13 05:30S 40°58' E 146°46'4 8.2
2018-Jun-13 05:00S 41°02' E 146°46'5 9.2
2018-Jun-13 04:30S 41°06' E 146°48'4 8.7
2018-Jun-13 04:00S 41°08' E 146°53'4 8.2
2018-Jun-13 03:30S 41°12' E 146°55'4 8.7
2018-Jun-13 02:59S 41°15' E 146°59'4 7.5
2018-Jun-13 02:30S 41°19' E 146°59'3 6.7
2018-Jun-13 02:00S 41°20' E 147°03'2 3.6
2018-Jun-13 01:30S 41°22' E 147°04'3 6.2
2018-Jun-13 01:00S 41°24' E 147°07'1 2.4
2018-Jun-13 00:30S 41°25' E 147°07'0 0.0
2018-Jun-12 23:59S 41°25' E 147°07'0 0.0
2018-Jun-12 23:30S 41°25' E 147°07'0 0.0
2018-Jun-12 23:00S 41°25' E 147°07'0 0.0
2018-Jun-12 22:30S 41°25' E 147°07'0 0.0
2018-Jun-12 22:00S 41°25' E 147°07'0 0.0
2018-Jun-12 21:30S 41°25' E 147°07'0 0.0
2018-Jun-12 21:00S 41°25' E 147°07'0 0.0
2018-Jun-12 20:30S 41°25' E 147°07'0 0.0
2018-Jun-12 20:00S 41°25' E 147°07'0 0.0
2018-Jun-12 19:30S 41°25' E 147°07'0 0.0
2018-Jun-12 19:00S 41°25' E 147°07'0 0.0
2018-Jun-12 18:30S 41°25' E 147°07'0 0.0
2018-Jun-12 18:00S 41°25' E 147°07'0 0.0
2018-Jun-12 17:30S 41°25' E 147°07'0 0.0
2018-Jun-12 17:00S 41°25' E 147°07'0 0.0
2018-Jun-12 16:30S 41°25' E 147°07'0 0.0
2018-Jun-12 16:00S 41°25' E 147°07'0 0.0
2018-Jun-12 15:30S 41°25' E 147°07'0 0.0
2018-Jun-12 15:00S 41°25' E 147°07'0 0.0
2018-Jun-12 14:30S 41°25' E 147°07'0 0.0
2018-Jun-12 14:00S 41°25' E 147°07'0 0.0
2018-Jun-12 13:30S 41°25' E 147°07'0 0.0
2018-Jun-12 13:00S 41°25' E 147°07'0 0.0
2018-Jun-12 12:30S 41°25' E 147°07'0 0.0
2018-Jun-12 12:00S 41°25' E 147°07'0 0.0
2018-Jun-12 11:30S 41°25' E 147°07'0 0.0
2018-Jun-12 11:00S 41°25' E 147°07'0 0.0
2018-Jun-12 10:30S 41°25' E 147°07'0 0.0
2018-Jun-12 10:00S 41°25' E 147°07'0 0.0
2018-Jun-12 09:30S 41°25' E 147°07'0 0.0
2018-Jun-12 09:00S 41°25' E 147°07'0 0.0
2018-Jun-12 08:30S 41°25' E 147°07'0 0.0
2018-Jun-12 08:00S 41°25' E 147°07'0 0.0
2018-Jun-12 07:30S 41°25' E 147°07'0 0.0
2018-Jun-12 07:00S 41°25' E 147°07'0 0.0
2018-Jun-12 06:30S 41°25' E 147°07'0 0.0
2018-Jun-12 06:00S 41°25' E 147°07'0 0.0
2018-Jun-12 05:29S 41°25' E 147°07'0 0.0
2018-Jun-12 05:00S 41°25' E 147°07'0 0.0
2018-Jun-12 04:30S 41°25' E 147°07'0 0.0
2018-Jun-12 04:00S 41°25' E 147°07'0 0.0
2018-Jun-12 03:30S 41°25' E 147°07'0 0.0
2018-Jun-12 03:00S 41°25' E 147°07'0 0.0
2018-Jun-12 02:30S 41°25' E 147°07'0 0.0
2018-Jun-12 02:00S 41°25' E 147°07'0 0.0
2018-Jun-12 01:30S 41°25' E 147°07'0 0.0
2018-Jun-12 01:00S 41°25' E 147°07'0 0.0
2018-Jun-12 00:30S 41°25' E 147°07'0 0.0
2018-Jun-11 03:57S 41°25' E 147°07'0 0.0
2018-Jun-11 03:30S 41°25' E 147°07'0 0.0
2018-Jun-11 03:00S 41°25' E 147°07'0 0.0
2018-Jun-11 02:31S 41°25' E 147°07'0 0.0
2018-Jun-11 02:00S 41°25' E 147°07'0 0.0
2018-Jun-11 01:31S 41°25' E 147°07'0 0.0
2018-Jun-11 01:00S 41°25' E 147°07'0 0.0
2018-Jun-11 00:30S 41°25' E 147°07'0 0.0
2018-Jun-11 00:00S 41°25' E 147°07'0 0.0
2018-Jun-10 23:30S 41°25' E 147°07'0 0.0
2018-Jun-10 23:00S 41°25' E 147°07'  
Track history (hours):
 
Tides and Currents Weather Stations Pressure Air Temp Water Temp Dewpoint Dewpoint Depression Visibility Wind Speed Wind Dir Waves Ship Positions

Statesman

Last reported at 2018-Jun-19 07:00 UTC. Time now 2018-Jun-19 06:59 UTC.
Position S 41°25' E 147°07'.

; draft 2.3 m.

Type: Passenger vessel. MMSI: 503344000.

Date/timePositionNaut miles runAvg speedWind from/ knotsBaromVisibWave heightAir tempDewpointWater temp
2018-Jun-19 07:00S 41°25' E 147°07'0 0.0
2018-Jun-19 06:30S 41°25' E 147°07'0 0.0
2018-Jun-19 06:00S 41°25' E 147°07'0 0.0
2018-Jun-19 05:30S 41°25' E 147°07'0 0.0
2018-Jun-19 05:00S 41°25' E 147°07'0 0.0
2018-Jun-19 04:30S 41°25' E 147°07'0 0.0
2018-Jun-19 04:00S 41°25' E 147°07'0 0.0
2018-Jun-19 03:30S 41°25' E 147°07'0 0.0
2018-Jun-19 03:00S 41°25' E 147°07'0 0.0
2018-Jun-19 02:30S 41°25' E 147°07'0 0.0
2018-Jun-19 02:00S 41°25' E 147°07'0 0.0
2018-Jun-19 01:30S 41°25' E 147°07'0 0.0
2018-Jun-19 01:00S 41°25' E 147°07'0 0.0
2018-Jun-19 00:30S 41°25' E 147°07'0 0.0
2018-Jun-19 00:00S 41°25' E 147°07'0 0.0
2018-Jun-18 23:30S 41°25' E 147°07'0 0.0
2018-Jun-18 23:00S 41°25' E 147°07'0 0.0
2018-Jun-18 22:30S 41°25' E 147°07'0 0.0
2018-Jun-18 22:00S 41°25' E 147°07'0 0.0
2018-Jun-18 21:30S 41°25' E 147°07'0 0.0
2018-Jun-18 21:00S 41°25' E 147°07'0 0.0
2018-Jun-18 20:30S 41°25' E 147°07'0 0.0
2018-Jun-18 20:00S 41°25' E 147°07'0 0.0
2018-Jun-18 19:30S 41°25' E 147°07'0 0.0
2018-Jun-18 19:00S 41°25' E 147°07'0 0.0
2018-Jun-18 18:30S 41°25' E 147°07'0 0.0
2018-Jun-18 18:00S 41°25' E 147°07'0 0.0
2018-Jun-18 17:30S 41°25' E 147°07'0 0.0
2018-Jun-18 17:00S 41°25' E 147°07'0 0.0
2018-Jun-18 16:29S 41°25' E 147°07'0 0.0
2018-Jun-18 16:00S 41°25' E 147°07'0 0.0
2018-Jun-18 15:30S 41°25' E 147°07'0 0.0
2018-Jun-18 15:00S 41°25' E 147°07'0 0.0
2018-Jun-18 14:30S 41°25' E 147°07'0 0.0
2018-Jun-18 14:00S 41°25' E 147°07'0 0.0
2018-Jun-18 13:30S 41°25' E 147°07'0 0.0
2018-Jun-18 13:00S 41°25' E 147°07'0 0.0
2018-Jun-18 12:30S 41°25' E 147°07'0 0.0
2018-Jun-18 12:00S 41°25' E 147°07'0 0.0
2018-Jun-18 11:30S 41°25' E 147°07'0 0.0
2018-Jun-18 11:00S 41°25' E 147°07'0 0.0
2018-Jun-18 10:30S 41°25' E 147°07'0 0.0
2018-Jun-18 10:00S 41°25' E 147°07'0 0.0
2018-Jun-18 09:30S 41°25' E 147°07'0 0.0
2018-Jun-18 09:00S 41°25' E 147°07'0 0.0
2018-Jun-18 08:30S 41°25' E 147°07'0 0.0
2018-Jun-18 07:59S 41°25' E 147°07'0 0.0
2018-Jun-18 07:30S 41°25' E 147°07'0 0.0
2018-Jun-18 07:00S 41°25' E 147°07'0 0.0
2018-Jun-18 06:30S 41°25' E 147°07'1 1.1
2018-Jun-18 06:00S 41°25' E 147°07'4 8.4
2018-Jun-18 05:30S 41°21' E 147°04'3 5.6
2018-Jun-18 05:00S 41°20' E 147°01'4 7.6
2018-Jun-18 04:30S 41°16' E 146°59'4 8.7
2018-Jun-18 04:00S 41°13' E 146°55'4 8.4
2018-Jun-18 03:30S 41°09' E 146°54'2 3.6
2018-Jun-18 03:00S 41°08' E 146°52'0 0.0
2018-Jun-18 02:30S 41°08' E 146°52'0 0.1
2018-Jun-18 02:00S 41°08' E 146°52'0 0.0
2018-Jun-18 01:30S 41°08' E 146°52'0 0.0
2018-Jun-18 01:00S 41°08' E 146°52'0 0.1
2018-Jun-18 00:30S 41°08' E 146°52'0 0.0
2018-Jun-18 00:00S 41°08' E 146°52'0 0.0
2018-Jun-17 23:30S 41°08' E 146°52'1 1.7
2018-Jun-17 23:00S 41°08' E 146°51'0 0.1
2018-Jun-17 22:30S 41°08' E 146°51'1 1.8
2018-Jun-17 22:00S 41°08' E 146°50'1 1.3
2018-Jun-17 21:30S 41°09' E 146°51'0 0.6
2018-Jun-17 20:59S 41°09' E 146°50'0 0.1
2018-Jun-17 20:29S 41°08' E 146°50'0 0.0
2018-Jun-17 20:00S 41°09' E 146°50'0 0.1
2018-Jun-17 19:30S 41°09' E 146°50'0 0.0
2018-Jun-17 19:00S 41°08' E 146°50'0 0.0
2018-Jun-17 18:30S 41°08' E 146°50'0 0.1
2018-Jun-17 18:00S 41°08' E 146°50'0 0.1
2018-Jun-17 17:30S 41°08' E 146°50'0 0.0
2018-Jun-17 17:00S 41°09' E 146°50'0 0.0
2018-Jun-17 16:30S 41°09' E 146°50'0 0.0
2018-Jun-17 16:00S 41°09' E 146°50'0 0.0
2018-Jun-17 15:30S 41°09' E 146°50'0 0.0
2018-Jun-17 15:00S 41°09' E 146°50'0 0.0
2018-Jun-17 14:30S 41°09' E 146°50'0 0.0
2018-Jun-17 14:00S 41°09' E 146°50'0 0.0
2018-Jun-17 13:30S 41°09' E 146°50'0 0.0
2018-Jun-17 13:00S 41°08' E 146°50'1 1.1
2018-Jun-17 12:30S 41°08' E 146°50'4 8.7
2018-Jun-17 12:00S 41°04' E 146°48'3 6.6
2018-Jun-17 11:30S 41°01' E 146°46'3 5.0
2018-Jun-17 11:00S 40°59' E 146°48'2 4.8
2018-Jun-17 10:30S 40°57' E 146°49'3 6.3
2018-Jun-17 10:00S 40°54' E 146°51'3 6.7
2018-Jun-17 09:30S 40°51' E 146°53'3 6.8
2018-Jun-17 09:00S 40°48' E 146°55'4 7.2
2018-Jun-17 08:30S 40°45' E 146°57'3 6.7
2018-Jun-17 08:00S 40°42' E 146°59'4 7.2
2018-Jun-17 07:30S 40°39' E 147°02'3 6.4
2018-Jun-17 07:00S 40°36' E 147°03'3 6.0
2018-Jun-17 06:30S 40°33' E 147°05'3 5.6
2018-Jun-17 06:00S 40°31' E 147°07'3 5.9
2018-Jun-17 05:30S 40°28' E 147°09'3 5.8
2018-Jun-17 05:00S 40°25' E 147°10'3 6.6
2018-Jun-17 04:30S 40°23' E 147°12'4 7.3
2018-Jun-17 04:00S 40°19' E 147°15'4 7.8
2018-Jun-17 03:30S 40°16' E 147°17'4 7.9
2018-Jun-17 03:00S 40°12' E 147°18'  
2018-Jun-13 12:58S 40°11' E 146°42'3 6.6
2018-Jun-13 12:30S 40°14' E 146°42'3 6.6
2018-Jun-13 11:59S 40°17' E 146°43'3 6.4
2018-Jun-13 11:30S 40°20' E 146°43'3 5.9
2018-Jun-13 11:00S 40°23' E 146°44'3 6.3
2018-Jun-13 10:30S 40°26' E 146°44'3 5.8
2018-Jun-13 10:00S 40°29' E 146°45'3 5.6
2018-Jun-13 09:30S 40°32' E 146°45'2 4.7
2018-Jun-13 09:00S 40°34' E 146°45'3 5.6
2018-Jun-13 08:30S 40°37' E 146°45'3 6.0
2018-Jun-13 08:00S 40°40' E 146°46'3 6.5
2018-Jun-13 07:30S 40°43' E 146°46'3 6.8
2018-Jun-13 07:00S 40°47' E 146°46'3 7.0
2018-Jun-13 06:30S 40°50' E 146°47'4 7.8
2018-Jun-13 06:00S 40°54' E 146°46'4 8.0
2018-Jun-13 05:30S 40°58' E 146°46'4 8.2
2018-Jun-13 05:00S 41°02' E 146°46'5 9.2
2018-Jun-13 04:30S 41°06' E 146°48'4 8.7
2018-Jun-13 04:00S 41°08' E 146°53'4 8.2
2018-Jun-13 03:30S 41°12' E 146°55'4 8.7
2018-Jun-13 02:59S 41°15' E 146°59'4 7.5
2018-Jun-13 02:30S 41°19' E 146°59'3 6.7
2018-Jun-13 02:00S 41°20' E 147°03'2 3.6
2018-Jun-13 01:30S 41°22' E 147°04'3 6.2
2018-Jun-13 01:00S 41°24' E 147°07'1 2.4
2018-Jun-13 00:30S 41°25' E 147°07'0 0.0
2018-Jun-12 23:59S 41°25' E 147°07'0 0.0
2018-Jun-12 23:30S 41°25' E 147°07'0 0.0
2018-Jun-12 23:00S 41°25' E 147°07'0 0.0
2018-Jun-12 22:30S 41°25' E 147°07'0 0.0
2018-Jun-12 22:00S 41°25' E 147°07'0 0.0
2018-Jun-12 21:30S 41°25' E 147°07'0 0.0
2018-Jun-12 21:00S 41°25' E 147°07'0 0.0
2018-Jun-12 20:30S 41°25' E 147°07'0 0.0
2018-Jun-12 20:00S 41°25' E 147°07'0 0.0
2018-Jun-12 19:30S 41°25' E 147°07'0 0.0
2018-Jun-12 19:00S 41°25' E 147°07'0 0.0
2018-Jun-12 18:30S 41°25' E 147°07'0 0.0
2018-Jun-12 18:00S 41°25' E 147°07'0 0.0
2018-Jun-12 17:30S 41°25' E 147°07'0 0.0
2018-Jun-12 17:00S 41°25' E 147°07'0 0.0
2018-Jun-12 16:30S 41°25' E 147°07'0 0.0
2018-Jun-12 16:00S 41°25' E 147°07'0 0.0
2018-Jun-12 15:30S 41°25' E 147°07'0 0.0
2018-Jun-12 15:00S 41°25' E 147°07'0 0.0
2018-Jun-12 14:30S 41°25' E 147°07'0 0.0
2018-Jun-12 14:00S 41°25' E 147°07'0 0.0
2018-Jun-12 13:30S 41°25' E 147°07'0 0.0
2018-Jun-12 13:00S 41°25' E 147°07'0 0.0
2018-Jun-12 12:30S 41°25' E 147°07'0 0.0
2018-Jun-12 12:00S 41°25' E 147°07'0 0.0
2018-Jun-12 11:30S 41°25' E 147°07'0 0.0
2018-Jun-12 11:00S 41°25' E 147°07'0 0.0
2018-Jun-12 10:30S 41°25' E 147°07'0 0.0
2018-Jun-12 10:00S 41°25' E 147°07'0 0.0
2018-Jun-12 09:30S 41°25' E 147°07'0 0.0
2018-Jun-12 09:00S 41°25' E 147°07'0 0.0
2018-Jun-12 08:30S 41°25' E 147°07'0 0.0
2018-Jun-12 08:00S 41°25' E 147°07'0 0.0
2018-Jun-12 07:30S 41°25' E 147°07'0 0.0
2018-Jun-12 07:00S 41°25' E 147°07'0 0.0
2018-Jun-12 06:30S 41°25' E 147°07'0 0.0
2018-Jun-12 06:00S 41°25' E 147°07'0 0.0
2018-Jun-12 05:29S 41°25' E 147°07'0 0.0
2018-Jun-12 05:00S 41°25' E 147°07'0 0.0
2018-Jun-12 04:30S 41°25' E 147°07'0 0.0
2018-Jun-12 04:00S 41°25' E 147°07'0 0.0
2018-Jun-12 03:30S 41°25' E 147°07'0 0.0
2018-Jun-12 03:00S 41°25' E 147°07'0 0.0
2018-Jun-12 02:30S 41°25' E 147°07'0 0.0
2018-Jun-12 02:00S 41°25' E 147°07'0 0.0
2018-Jun-12 01:30S 41°25' E 147°07'0 0.0
2018-Jun-12 01:00S 41°25' E 147°07'0 0.0
2018-Jun-12 00:30S 41°25' E 147°07'0 0.0
2018-Jun-11 03:57S 41°25' E 147°07'0 0.0
2018-Jun-11 03:30S 41°25' E 147°07'0 0.0
2018-Jun-11 03:00S 41°25' E 147°07'0 0.0
2018-Jun-11 02:31S 41°25' E 147°07'0 0.0
2018-Jun-11 02:00S 41°25' E 147°07'0 0.0
2018-Jun-11 01:31S 41°25' E 147°07'0 0.0
2018-Jun-11 01:00S 41°25' E 147°07'0 0.0
2018-Jun-11 00:30S 41°25' E 147°07'0 0.0
2018-Jun-11 00:00S 41°25' E 147°07'0 0.0
2018-Jun-10 23:30S 41°25' E 147°07'0 0.0
2018-Jun-10 23:00S 41°25' E 147°07'  

Dump ship's entire track history